createdAt,value
2019-03-29T00:02:24.455Z,102656.91
2019-03-29T00:04:54.456Z,102662.20
2019-03-29T00:07:38.488Z,102653.46
2019-03-29T00:09:56.522Z,102650.31
2019-03-29T00:12:26.564Z,102654.48
2019-03-29T00:14:56.734Z,102648.41
2019-03-29T00:17:40.996Z,102657.44
2019-03-29T00:20:11.163Z,102656.95
2019-03-29T00:22:41.200Z,102657.32
2019-03-29T00:25:11.444Z,102663.50
2019-03-29T00:27:41.553Z,102662.83
2019-03-29T00:30:12.245Z,102663.11
2019-03-29T00:32:42.361Z,102661.72
2019-03-29T00:35:12.616Z,102667.70
2019-03-29T00:37:53.461Z,102673.58
2019-03-29T00:40:14.881Z,102668.53
2019-03-29T00:42:45.296Z,102657.79
2019-03-29T00:45:16.768Z,102662.58
2019-03-29T00:47:47.126Z,102652.33
2019-03-29T00:50:17.314Z,102643.27
2019-03-29T00:52:47.376Z,102645.52
2019-03-29T00:55:17.608Z,102646.01
2019-03-29T00:57:50.465Z,102636.95
2019-03-29T01:00:20.887Z,102638.52
2019-03-29T01:02:50.885Z,102635.16
2019-03-29T01:05:21.223Z,102634.74
2019-03-29T01:07:51.545Z,102626.34
2019-03-29T01:10:22.214Z,102611.55
2019-03-29T01:12:53.141Z,102613.95
2019-03-29T01:15:23.707Z,102613.95
2019-03-29T01:17:53.949Z,102617.42
2019-03-29T01:20:24.050Z,102612.71
2019-03-29T01:22:54.401Z,102606.94
2019-03-29T01:25:24.728Z,102598.14
2019-03-29T01:27:54.882Z,102597.13
2019-03-29T01:30:25.052Z,102588.31
2019-03-29T01:32:55.436Z,102576.36
2019-03-29T01:35:26.461Z,102580.06
2019-03-29T01:37:57.506Z,102580.06
2019-03-29T01:40:28.157Z,102392.52
2019-03-29T01:42:58.889Z,102571.22
2019-03-29T01:45:29.169Z,102582.48
2019-03-29T01:47:59.233Z,102572.00
2019-03-29T01:50:29.787Z,102566.64
2019-03-29T01:53:00.523Z,102556.98
2019-03-29T01:55:31.020Z,102562.46
2019-03-29T01:58:02.384Z,102567.05
2019-03-29T02:00:34.456Z,102561.77
2019-03-29T02:03:05.513Z,102555.93
2019-03-29T02:05:35.675Z,102561.79
2019-03-29T02:08:06.711Z,102547.87
2019-03-29T02:10:38.042Z,102547.87
2019-03-29T02:13:08.118Z,102546.89
2019-03-29T02:15:38.545Z,102541.61
2019-03-29T02:18:11.233Z,102539.32
2019-03-29T02:20:41.478Z,102540.52
2019-03-29T02:23:11.805Z,102540.02
2019-03-29T02:25:42.454Z,102540.16
2019-03-29T02:28:13.866Z,102523.87
2019-03-29T02:30:44.509Z,102519.36
2019-03-29T02:33:14.871Z,102525.17
2019-03-29T02:35:45.151Z,102518.05
2019-03-29T02:38:15.320Z,102518.05
2019-03-29T02:40:45.548Z,102513.48
2019-03-29T02:43:33.528Z,102513.48
2019-03-29T02:46:04.085Z,102524.77
2019-03-29T02:48:34.585Z,102520.80
2019-03-29T02:51:05.186Z,102511.64
2019-03-29T02:53:35.627Z,102511.64
2019-03-29T02:56:06.307Z,102507.50
2019-03-29T02:58:37.105Z,102507.50
2019-03-29T03:01:07.330Z,102501.16
2019-03-29T03:03:37.725Z,102501.16
2019-03-29T03:06:08.125Z,102495.72
2019-03-29T03:08:38.139Z,102495.92
2019-03-29T03:11:08.214Z,102502.11
2019-03-29T03:13:38.485Z,102502.11
2019-03-29T03:16:08.681Z,102493.52
2019-03-29T03:18:40.202Z,102323.99
2019-03-29T03:21:10.248Z,102500.31
2019-03-29T03:23:40.289Z,102495.31
2019-03-29T03:26:10.715Z,102495.31
2019-03-29T03:28:45.807Z,102493.52
2019-03-29T03:31:19.593Z,102498.98
2019-03-29T03:33:49.571Z,102497.39
2019-03-29T03:36:19.550Z,102499.81
2019-03-29T03:38:49.875Z,102500.98
2019-03-29T03:41:19.944Z,102502.78
2019-03-29T03:43:49.981Z,102504.29
2019-03-29T03:46:20.192Z,102502.16
2019-03-29T03:48:50.199Z,102507.40
2019-03-29T03:51:20.322Z,102500.73
2019-03-29T03:53:51.146Z,102500.32
2019-03-29T03:58:13.544Z,102487.07
2019-03-29T04:01:00.055Z,102492.50
2019-03-29T04:03:30.200Z,102480.46
2019-03-29T04:06:00.582Z,102480.46
2019-03-29T04:08:30.868Z,102480.58
2019-03-29T04:11:00.961Z,102484.99
2019-03-29T04:13:30.987Z,102478.89
2019-03-29T04:16:01.678Z,102477.70
2019-03-29T04:18:31.797Z,102481.74
2019-03-29T04:21:02.078Z,102468.64
2019-03-29T04:23:32.264Z,102471.79
2019-03-29T04:26:03.173Z,102470.41
2019-03-29T04:28:33.337Z,102461.61
2019-03-29T04:31:03.594Z,102465.65
2019-03-29T04:33:33.854Z,102471.45
2019-03-29T04:36:04.012Z,102458.35
2019-03-29T04:38:34.108Z,102460.03
2019-03-29T04:41:04.990Z,102457.91
2019-03-29T04:43:35.252Z,102457.91
2019-03-29T04:46:05.865Z,102450.04
2019-03-29T04:48:36.054Z,102455.84
2019-03-29T04:51:06.372Z,102455.84
2019-03-29T04:53:36.708Z,102455.58
2019-03-29T04:56:07.262Z,102455.58
2019-03-29T04:58:37.823Z,102453.45
2019-03-29T05:01:08.207Z,102448.09
2019-03-29T05:03:38.452Z,102301.91
2019-03-29T05:06:08.852Z,102431.73
2019-03-29T05:08:39.140Z,102467.37
2019-03-29T05:11:09.562Z,102463.93
2019-03-29T05:13:40.069Z,102463.93
2019-03-29T05:16:10.561Z,102463.93
2019-03-29T05:18:41.154Z,102459.63
2019-03-29T05:21:11.448Z,102463.07
2019-03-29T05:23:42.226Z,102452.51
2019-03-29T05:26:12.542Z,102452.51
2019-03-29T05:28:42.788Z,102454.49
2019-03-29T05:31:13.356Z,102461.23
2019-03-29T05:33:44.091Z,102459.92
2019-03-29T05:36:14.522Z,102455.61
2019-03-29T05:38:44.931Z,102458.72
2019-03-29T05:41:15.755Z,102442.72
2019-03-29T05:43:46.133Z,102444.78
2019-03-29T05:46:22.443Z,102438.23
2019-03-29T05:48:52.627Z,102425.16
2019-03-29T05:51:22.651Z,102425.16
2019-03-29T05:53:53.360Z,102412.02
2019-03-29T05:56:23.531Z,102416.50
2019-03-29T05:58:57.223Z,102420.92
2019-03-29T06:01:27.360Z,102416.50
2019-03-29T06:03:57.840Z,102408.53
2019-03-29T06:06:28.247Z,102414.64
2019-03-29T06:08:58.582Z,102406.92
2019-03-29T06:11:28.712Z,102406.92
2019-03-29T06:13:58.962Z,102406.95
2019-03-29T06:16:38.995Z,102406.81
2019-03-29T06:19:01.438Z,102410.44
2019-03-29T06:21:31.716Z,102401.33
2019-03-29T06:24:02.164Z,102396.95
2019-03-29T06:26:32.623Z,102397.05
2019-03-29T06:29:03.199Z,102392.91
2019-03-29T06:31:35.300Z,102381.88
2019-03-29T06:34:05.656Z,102385.60
2019-03-29T06:36:36.447Z,102378.80
2019-03-29T06:39:09.546Z,102378.91
2019-03-29T06:41:39.813Z,102373.39
2019-03-29T06:44:10.069Z,102378.73
2019-03-29T06:46:40.282Z,102378.97
2019-03-29T06:49:10.974Z,102379.39
2019-03-29T06:51:41.118Z,102380.80
2019-03-29T06:54:11.284Z,102375.72
2019-03-29T06:56:42.166Z,102374.98
2019-03-29T06:59:12.326Z,102368.53
2019-03-29T07:01:42.355Z,102355.95
2019-03-29T07:04:13.018Z,102355.95
2019-03-29T07:06:43.314Z,102369.91
2019-03-29T07:09:13.489Z,102368.66
2019-03-29T07:11:44.063Z,102371.09
2019-03-29T07:14:14.329Z,102369.48
2019-03-29T07:16:44.491Z,102371.73
2019-03-29T07:19:15.293Z,102381.49
2019-03-29T07:21:45.535Z,102373.67
2019-03-29T07:24:15.983Z,102371.44
2019-03-29T07:26:46.105Z,102379.79
2019-03-29T07:29:16.286Z,102384.66
2019-03-29T07:31:46.679Z,102384.66
2019-03-29T07:34:17.181Z,102390.54
2019-03-29T07:36:47.564Z,102382.37
2019-03-29T07:39:17.645Z,102382.05
2019-03-29T07:41:47.893Z,102375.92
2019-03-29T07:44:18.383Z,102372.56
2019-03-29T07:46:48.527Z,102371.20
2019-03-29T07:49:19.276Z,102371.20
2019-03-29T07:51:49.577Z,102370.46
2019-03-29T07:54:19.605Z,102366.97
2019-03-29T07:56:50.143Z,102367.36
2019-03-29T07:59:20.848Z,102349.25
2019-03-29T08:01:51.003Z,102349.25
2019-03-29T08:04:22.098Z,102362.28
2019-03-29T08:06:53.604Z,102358.34
2019-03-29T08:09:23.956Z,102359.43
2019-03-29T08:11:55.376Z,102362.28
2019-03-29T08:14:26.019Z,102355.14
2019-03-29T08:16:56.500Z,102359.55
2019-03-29T08:19:26.904Z,102355.69
2019-03-29T08:21:57.971Z,102340.23
2019-03-29T08:24:28.349Z,102340.23
2019-03-29T08:26:58.727Z,102347.97
2019-03-29T08:29:31.390Z,102346.43
2019-03-29T08:32:01.045Z,102338.77
2019-03-29T08:34:31.244Z,102346.03
2019-03-29T08:37:01.415Z,102334.84
2019-03-29T08:39:31.912Z,102336.91
2019-03-29T08:42:02.678Z,102334.36
2019-03-29T08:44:32.924Z,102339.09
2019-03-29T08:47:03.167Z,102324.16
2019-03-29T08:49:35.862Z,102326.14
2019-03-29T08:52:06.125Z,102326.14
2019-03-29T08:54:36.258Z,102338.89
2019-03-29T08:57:06.507Z,102329.54
2019-03-29T08:59:36.764Z,102336.13
2019-03-29T09:02:07.895Z,102347.08
2019-03-29T09:04:38.331Z,102341.17
2019-03-29T09:07:08.421Z,102338.78
2019-03-29T09:09:38.960Z,102346.77
2019-03-29T09:12:14.605Z,102349.88
2019-03-29T09:14:41.254Z,102354.93
2019-03-29T09:17:11.282Z,102361.17
2019-03-29T09:19:41.691Z,102365.02
2019-03-29T09:22:12.135Z,102366.39
2019-03-29T09:24:42.216Z,102364.35
2019-03-29T09:27:12.399Z,102359.61
2019-03-29T09:29:42.658Z,102361.06
2019-03-29T09:32:12.756Z,102363.64
2019-03-29T09:34:43.360Z,102367.17
2019-03-29T09:37:13.597Z,102368.56
2019-03-29T09:39:43.642Z,102367.31
2019-03-29T09:42:27.808Z,102362.71
2019-03-29T09:44:45.746Z,102363.22
2019-03-29T09:47:15.955Z,102369.47
2019-03-29T09:49:46.648Z,102372.59
2019-03-29T09:52:16.698Z,102360.08
2019-03-29T09:54:47.022Z,102363.45
2019-03-29T09:57:17.262Z,102369.79
2019-03-29T09:59:47.431Z,102367.26
2019-03-29T10:02:17.922Z,102364.63
2019-03-29T10:04:48.487Z,102372.86
2019-03-29T10:07:18.769Z,102371.34
2019-03-29T10:09:48.879Z,102367.38
2019-03-29T10:12:19.015Z,102355.36
2019-03-29T10:14:49.315Z,102355.36
2019-03-29T10:17:19.358Z,102366.47
2019-03-29T10:19:50.201Z,102355.98
2019-03-29T10:22:20.372Z,102349.89
2019-03-29T10:24:50.632Z,102355.52
2019-03-29T10:27:20.962Z,102357.52
2019-03-29T10:29:51.094Z,102343.48
2019-03-29T10:32:21.535Z,102343.84
2019-03-29T10:34:52.223Z,102347.33
2019-03-29T10:37:22.297Z,102344.57
2019-03-29T10:39:52.450Z,102339.58
2019-03-29T10:42:22.978Z,102339.99
2019-03-29T10:44:53.106Z,102335.25
2019-03-29T10:47:23.123Z,102330.71
2019-03-29T10:49:53.735Z,102330.16
2019-03-29T10:52:23.849Z,102334.73
2019-03-29T10:54:54.289Z,102337.67
2019-03-29T10:57:24.376Z,102323.38
2019-03-29T10:59:54.380Z,102323.64
2019-03-29T11:02:24.761Z,102326.03
2019-03-29T11:04:55.070Z,102332.58
2019-03-29T11:07:25.044Z,102327.84
2019-03-29T11:09:55.313Z,102334.38
2019-03-29T11:12:25.465Z,102326.83
2019-03-29T11:14:55.524Z,102326.75
2019-03-29T11:17:25.869Z,102319.08
2019-03-29T11:19:56.234Z,102314.82
2019-03-29T11:22:26.254Z,102318.12
2019-03-29T11:24:56.544Z,102310.27
2019-03-29T11:27:26.743Z,102316.98
2019-03-29T11:29:57.439Z,102291.81
2019-03-29T11:32:27.569Z,102301.61
2019-03-29T11:34:58.262Z,102307.75
2019-03-29T11:37:28.490Z,102307.86
2019-03-29T11:39:58.599Z,102294.92
2019-03-29T11:42:28.763Z,102306.11
2019-03-29T11:44:58.820Z,102310.48
2019-03-29T11:47:28.973Z,102306.48
2019-03-29T11:49:59.885Z,102310.05
2019-03-29T11:52:29.949Z,102307.56
2019-03-29T11:55:00.417Z,102300.63
2019-03-29T11:57:30.567Z,102271.16
2019-03-29T12:00:01.078Z,102311.65
2019-03-29T12:02:31.867Z,102295.56
2019-03-29T12:05:02.661Z,102303.36
2019-03-29T12:07:32.710Z,102309.53
2019-03-29T12:10:02.744Z,102294.91
2019-03-29T12:12:33.008Z,102298.88
2019-03-29T12:15:02.979Z,102301.21
2019-03-29T12:17:33.133Z,102294.44
2019-03-29T12:20:03.680Z,102293.22
2019-03-29T12:22:33.685Z,102285.47
2019-03-29T12:25:03.889Z,102282.58
2019-03-29T12:27:33.980Z,102286.44
2019-03-29T12:30:04.539Z,102279.58
2019-03-29T12:32:34.871Z,102288.23
2019-03-29T12:35:05.665Z,102283.87
2019-03-29T12:37:35.734Z,102280.73
2019-03-29T12:40:06.267Z,102271.16
2019-03-29T12:42:36.323Z,102274.79
2019-03-29T12:45:06.651Z,102273.11
2019-03-29T12:47:37.330Z,102269.04
2019-03-29T12:50:07.932Z,102259.23
2019-03-29T12:52:38.233Z,102252.06
2019-03-29T12:55:08.505Z,102249.34
2019-03-29T12:57:39.139Z,102240.52
2019-03-29T13:00:10.522Z,102234.34
2019-03-29T13:02:40.748Z,102236.52
2019-03-29T13:05:11.647Z,102232.47
2019-03-29T13:07:41.880Z,102222.84
2019-03-29T13:10:13.513Z,102221.62
2019-03-29T13:12:43.676Z,102214.88
2019-03-29T13:15:14.181Z,102216.72
2019-03-29T13:17:44.315Z,102220.92
2019-03-29T13:20:15.016Z,102224.97
2019-03-29T13:22:45.199Z,102208.41
2019-03-29T13:25:15.447Z,102208.80
2019-03-29T13:27:45.656Z,102202.24
2019-03-29T13:30:17.281Z,102201.89
2019-03-29T13:32:47.781Z,102207.02
2019-03-29T13:35:18.138Z,102202.89
2019-03-29T13:37:48.417Z,102207.27
2019-03-29T13:40:21.034Z,102191.50
2019-03-29T13:42:51.029Z,102199.45
2019-03-29T13:45:21.213Z,102187.13
2019-03-29T13:47:51.307Z,102176.81
2019-03-29T13:50:22.053Z,102173.45
2019-03-29T13:52:52.064Z,102182.88
2019-03-29T13:55:22.157Z,102180.48
2019-03-29T13:57:52.541Z,102172.65
2019-03-29T14:00:22.546Z,102176.90
2019-03-29T14:02:52.666Z,102168.94
2019-03-29T14:05:23.220Z,102167.06
2019-03-29T14:07:53.264Z,102168.09
2019-03-29T14:10:23.336Z,102163.70
2019-03-29T14:12:53.777Z,102168.75
2019-03-29T14:15:23.870Z,102169.41
2019-03-29T14:17:54.209Z,102146.71
2019-03-29T14:20:32.940Z,102153.44
2019-03-29T14:23:04.618Z,102159.84
2019-03-29T14:25:34.738Z,102148.41
2019-03-29T14:28:04.949Z,102149.15
2019-03-29T14:30:35.049Z,102148.40
2019-03-29T14:33:05.143Z,102132.39
2019-03-29T14:35:35.997Z,102128.05
2019-03-29T14:38:06.037Z,102116.28
2019-03-29T14:40:36.113Z,102123.81
2019-03-29T14:43:06.368Z,102109.44
2019-03-29T14:45:36.622Z,102101.02
2019-03-29T14:48:06.757Z,102103.65
2019-03-29T14:50:37.230Z,102100.63
2019-03-29T14:53:07.358Z,102099.22
2019-03-29T14:55:37.355Z,102098.75
2019-03-29T14:58:07.841Z,102088.66
2019-03-29T15:00:39.921Z,102085.61
2019-03-29T15:03:10.290Z,102086.46
2019-03-29T15:05:41.036Z,102088.66
2019-03-29T15:08:11.347Z,102086.11
2019-03-29T15:10:41.353Z,102087.02
2019-03-29T15:13:11.494Z,102085.27
2019-03-29T15:15:41.928Z,102089.61
2019-03-29T15:18:12.020Z,102087.86
2019-03-29T15:20:53.324Z,102081.19
2019-03-29T15:23:14.532Z,102081.69
2019-03-29T15:25:44.597Z,102076.41
2019-03-29T15:28:14.609Z,102068.46
2019-03-29T15:30:45.007Z,102060.47
2019-03-29T15:33:15.090Z,102061.39
2019-03-29T15:35:45.677Z,102065.73
2019-03-29T15:38:16.189Z,102067.44
2019-03-29T15:40:46.225Z,102066.12
2019-03-29T15:43:16.430Z,102059.09
2019-03-29T15:45:46.756Z,102058.20
2019-03-29T15:48:16.770Z,102045.52
2019-03-29T15:50:47.466Z,102038.47
2019-03-29T15:53:17.722Z,102045.45
2019-03-29T15:55:48.066Z,102038.77
2019-03-29T15:58:18.162Z,102040.94
2019-03-29T16:00:48.312Z,102045.65
2019-03-29T16:03:18.678Z,102046.92
2019-03-29T16:05:49.264Z,102043.44
2019-03-29T16:08:19.626Z,102024.98
2019-03-29T16:10:49.865Z,102025.83
2019-03-29T16:13:20.116Z,102026.59
2019-03-29T16:15:50.148Z,102027.53
2019-03-29T16:18:20.234Z,102027.45
2019-03-29T16:20:50.842Z,102026.55
2019-03-29T16:23:21.114Z,102036.67
2019-03-29T16:25:51.361Z,102029.61
2019-03-29T16:28:21.532Z,102021.32
2019-03-29T16:30:51.863Z,102023.95
2019-03-29T16:33:22.158Z,102022.08
2019-03-29T16:35:52.494Z,101846.08
2019-03-29T16:38:22.760Z,102021.28
2019-03-29T16:40:53.073Z,102027.40
2019-03-29T16:43:23.198Z,102021.14
2019-03-29T16:45:53.235Z,102022.83
2019-03-29T16:48:23.793Z,102013.97
2019-03-29T16:50:54.416Z,102008.72
2019-03-29T16:53:24.492Z,102014.41
2019-03-29T16:55:54.860Z,102003.39
2019-03-29T16:58:24.948Z,101999.02
2019-03-29T17:00:55.018Z,101999.91
2019-03-29T17:03:25.328Z,102001.70
2019-03-29T17:05:55.790Z,102006.06
2019-03-29T17:08:25.968Z,102006.83
2019-03-29T17:10:58.633Z,102004.13
2019-03-29T17:13:28.988Z,102003.97
2019-03-29T17:16:02.002Z,102008.23
2019-03-29T17:18:31.129Z,102005.61
2019-03-29T17:21:01.602Z,102005.55
2019-03-29T17:23:31.664Z,102002.48
2019-03-29T17:26:02.545Z,102006.34
2019-03-29T17:28:32.609Z,102017.72
2019-03-29T17:31:05.078Z,102012.33
2019-03-29T17:33:35.201Z,102009.63
2019-03-29T17:36:05.446Z,102012.20
2019-03-29T17:38:35.707Z,102013.47
2019-03-29T17:41:05.792Z,101855.42
2019-03-29T17:43:36.261Z,102011.61
2019-03-29T17:46:16.128Z,102013.33
2019-03-29T17:48:39.754Z,102003.11
2019-03-29T17:51:10.366Z,102005.25
2019-03-29T17:53:40.483Z,102009.08
2019-03-29T17:56:10.562Z,102010.86
2019-03-29T17:58:40.639Z,102012.13
2019-03-29T18:01:10.973Z,102012.13
2019-03-29T18:03:41.057Z,102021.27
2019-03-29T18:06:11.554Z,102022.53
2019-03-29T18:08:42.565Z,102018.72
2019-03-29T18:11:12.640Z,102025.28
2019-03-29T18:13:42.676Z,102019.13
2019-03-29T18:16:13.246Z,102013.73
2019-03-29T18:18:43.361Z,102020.20
2019-03-29T18:21:14.101Z,102020.30
2019-03-29T18:23:44.129Z,102020.62
2019-03-29T18:26:14.237Z,102014.47
2019-03-29T18:28:44.559Z,102013.50
2019-03-29T18:31:14.914Z,102001.10
2019-03-29T18:33:45.496Z,102007.92
2019-03-29T18:36:16.275Z,102015.89
2019-03-29T18:38:48.341Z,102025.58
2019-03-29T18:41:18.440Z,102017.63
2019-03-29T18:43:49.344Z,102022.65
2019-03-29T18:46:19.584Z,102017.39
2019-03-29T18:48:49.700Z,102020.80
2019-03-29T18:51:20.339Z,102019.05
2019-03-29T18:53:50.893Z,102020.69
2019-03-29T18:56:21.407Z,102012.74
2019-03-29T18:58:51.550Z,102016.17
2019-03-29T19:01:22.005Z,102011.33
2019-03-29T19:03:52.036Z,102008.36
2019-03-29T19:06:23.590Z,102011.19
2019-03-29T19:08:53.709Z,102010.38
2019-03-29T19:11:23.887Z,102018.59
2019-03-29T19:13:53.959Z,102008.48
2019-03-29T19:16:24.231Z,101992.29
2019-03-29T19:18:54.702Z,101996.02
2019-03-29T19:21:25.786Z,101996.02
2019-03-29T19:23:56.226Z,101996.49
2019-03-29T19:26:26.273Z,101997.33
2019-03-29T19:28:56.521Z,101991.90
2019-03-29T19:31:26.932Z,101994.52
2019-03-29T19:33:57.041Z,101994.45
2019-03-29T19:36:28.179Z,101992.21
2019-03-29T19:38:58.434Z,101993.06
2019-03-29T19:41:28.637Z,101993.28
2019-03-29T19:43:58.766Z,102002.07
2019-03-29T19:46:28.983Z,102003.90
2019-03-29T19:48:59.109Z,102007.84
2019-03-29T19:51:29.679Z,102010.27
2019-03-29T19:54:07.305Z,102015.12
2019-03-29T19:56:32.064Z,102016.93
2019-03-29T19:59:02.125Z,102019.61
2019-03-29T20:01:32.306Z,102012.50
2019-03-29T20:04:02.606Z,102012.50
2019-03-29T20:06:32.970Z,102018.15
2019-03-29T20:09:03.738Z,102026.09
2019-03-29T20:11:35.411Z,102026.69
2019-03-29T20:14:06.216Z,102043.16
2019-03-29T20:16:36.540Z,102040.14
2019-03-29T20:19:07.046Z,102034.58
2019-03-29T20:21:37.357Z,102035.66
2019-03-29T20:24:07.394Z,102035.66
2019-03-29T20:26:37.852Z,102028.20
2019-03-29T20:29:07.968Z,102030.11
2019-03-29T20:31:38.382Z,102033.23
2019-03-29T20:34:08.590Z,102010.25
2019-03-29T20:36:38.764Z,102027.63
2019-03-29T20:39:09.246Z,102028.22
2019-03-29T20:41:39.509Z,102030.25
2019-03-29T20:44:09.824Z,102035.49
2019-03-29T20:46:40.152Z,102035.57
2019-03-29T20:49:10.270Z,102033.37
2019-03-29T20:51:40.455Z,102028.44
2019-03-29T20:54:10.955Z,102029.72
2019-03-29T20:56:41.590Z,102032.66
2019-03-29T20:59:11.696Z,102016.61
2019-03-29T21:01:41.922Z,102016.61
2019-03-29T21:04:12.079Z,102020.14
2019-03-29T21:06:42.307Z,102020.66
2019-03-29T21:09:12.643Z,102010.38
2019-03-29T21:11:42.723Z,102010.38
2019-03-29T21:14:13.006Z,102015.38
2019-03-29T21:16:43.124Z,102015.38
2019-03-29T21:19:13.145Z,101982.61
2019-03-29T21:21:43.479Z,102021.17
2019-03-29T21:24:13.520Z,102015.22
2019-03-29T21:26:43.605Z,102019.55
2019-03-29T21:29:13.893Z,102025.63
2019-03-29T21:31:43.981Z,102020.94
2019-03-29T21:34:14.081Z,102031.88
2019-03-29T21:36:44.596Z,102033.89
2019-03-29T21:39:15.185Z,102027.86
2019-03-29T21:41:45.551Z,102036.36
2019-03-29T21:44:15.658Z,102030.33
2019-03-29T21:46:46.164Z,102020.34
2019-03-29T21:49:16.401Z,102026.91
2019-03-29T21:51:46.654Z,102029.17
2019-03-29T21:54:18.540Z,102025.63
2019-03-29T21:56:48.668Z,102020.48
2019-03-29T21:59:18.996Z,102021.09
2019-03-29T22:01:49.445Z,102021.15
2019-03-29T22:04:19.653Z,102027.73
2019-03-29T22:06:50.414Z,102009.13
2019-03-29T22:09:21.031Z,102014.22
2019-03-29T22:11:51.754Z,102001.18
2019-03-29T22:14:22.044Z,102008.13
2019-03-29T22:16:52.478Z,101996.56
2019-03-29T22:19:22.732Z,101996.56
2019-03-29T22:21:53.113Z,101997.88
2019-03-29T22:24:23.281Z,102003.96
2019-03-29T22:26:53.285Z,102003.96
2019-03-29T22:29:23.525Z,102007.06
2019-03-29T22:31:53.808Z,102017.34
2019-03-29T22:34:24.139Z,102013.02
2019-03-29T22:36:54.526Z,102014.24
2019-03-29T22:39:24.750Z,102014.77
2019-03-29T22:41:55.049Z,102004.36
2019-03-29T22:44:25.089Z,101995.48
2019-03-29T22:46:55.351Z,101995.48
2019-03-29T22:49:25.702Z,101991.22
2019-03-29T22:51:56.248Z,101993.78
2019-03-29T22:54:26.549Z,101993.78
2019-03-29T22:56:56.982Z,101978.52
2019-03-29T22:59:27.298Z,101974.98
2019-03-29T23:01:57.476Z,101978.91
2019-03-29T23:04:27.638Z,101982.25
2019-03-29T23:06:57.767Z,101982.25
2019-03-29T23:09:27.937Z,101983.70
2019-03-29T23:11:58.100Z,101984.62
2019-03-29T23:14:28.430Z,101987.83
2019-03-29T23:16:58.501Z,101986.22
2019-03-29T23:19:28.525Z,101992.16
2019-03-29T23:21:58.891Z,101998.81
2019-03-29T23:24:28.990Z,101992.66
2019-03-29T23:26:59.169Z,101999.30
2019-03-29T23:29:29.523Z,101988.25
2019-03-29T23:31:59.766Z,101991.87
2019-03-29T23:34:30.152Z,101993.58
2019-03-29T23:37:00.326Z,101982.08
2019-03-29T23:39:30.448Z,101980.38
2019-03-29T23:42:00.932Z,101976.00
2019-03-29T23:44:31.001Z,101972.91
2019-03-29T23:47:01.172Z,101960.11
2019-03-29T23:49:31.387Z,101960.11
2019-03-29T23:52:02.279Z,101967.27
2019-03-29T23:54:32.335Z,101967.27
2019-03-29T23:57:02.551Z,101965.39
2019-03-29T23:59:33.134Z,101952.47
